createdAt,value
2018-11-28T00:00:40.431Z,1.10
2018-11-28T00:03:09.461Z,1.10
2018-11-28T00:05:39.306Z,1.00
2018-11-28T00:08:24.079Z,1.10
2018-11-28T00:10:54.081Z,1.10
2018-11-28T00:13:23.359Z,1.20
2018-11-28T00:15:52.820Z,1.20
2018-11-28T00:18:22.422Z,1.10
2018-11-28T00:20:51.715Z,1.00
2018-11-28T00:23:21.330Z,1.00
2018-11-28T00:25:50.618Z,1.10
2018-11-28T00:28:20.468Z,1.00
2018-11-28T00:30:50.453Z,0.90
2018-11-28T00:33:20.079Z,1.00
2018-11-28T00:35:49.359Z,0.90
2018-11-28T00:38:18.656Z,1.00
2018-11-28T00:40:47.915Z,1.00
2018-11-28T00:43:17.239Z,0.90
2018-11-28T00:45:47.459Z,0.90
2018-11-28T00:48:16.738Z,1.00
2018-11-28T00:50:47.290Z,1.00
2018-11-28T00:53:16.582Z,1.10
2018-11-28T00:55:48.477Z,1.00
2018-11-28T00:58:15.340Z,1.00
2018-11-28T01:00:44.664Z,1.10
2018-11-28T01:03:13.955Z,1.10
2018-11-28T01:05:43.289Z,1.00
2018-11-28T01:08:12.991Z,1.00
2018-11-28T01:10:42.265Z,1.10
2018-11-28T01:13:11.805Z,1.10
2018-11-28T01:15:41.079Z,1.00
2018-11-28T01:18:10.576Z,1.00
2018-11-28T01:20:40.262Z,1.00
2018-11-28T01:23:09.548Z,0.90
2018-11-28T01:25:38.852Z,0.90
2018-11-28T01:28:08.822Z,1.00
2018-11-28T01:30:38.162Z,1.00
2018-11-28T01:33:07.452Z,1.00
2018-11-28T01:35:37.302Z,0.90
2018-11-28T01:38:07.386Z,0.90
2018-11-28T01:40:36.700Z,1.00
2018-11-28T01:43:07.242Z,1.00
2018-11-28T01:45:36.271Z,1.00
2018-11-28T01:48:05.734Z,1.00
2018-11-28T01:50:34.967Z,1.00
2018-11-28T01:53:04.295Z,1.00
2018-11-28T01:55:33.590Z,0.90
2018-11-28T01:58:03.774Z,0.90
2018-11-28T02:00:33.109Z,0.80
2018-11-28T02:03:03.283Z,0.80
2018-11-28T02:05:32.830Z,0.80
2018-11-28T02:08:02.316Z,0.80
2018-11-28T02:10:32.120Z,0.80
2018-11-28T02:13:01.389Z,0.60
2018-11-28T02:15:30.683Z,0.50
2018-11-28T02:17:59.972Z,0.50
2018-11-28T02:20:29.627Z,0.30
2018-11-28T02:22:58.891Z,0.30
2018-11-28T02:25:28.182Z,0.20
2018-11-28T02:27:57.443Z,0.10
2018-11-28T02:30:26.759Z,0.00
2018-11-28T02:32:56.205Z,-0.10
2018-11-28T02:35:25.671Z,-0.20
2018-11-28T02:37:55.073Z,-0.20
2018-11-28T02:40:24.447Z,-0.40
2018-11-28T02:42:53.746Z,-0.40
2018-11-28T02:45:23.499Z,-0.50
2018-11-28T02:47:53.241Z,-0.60
2018-11-28T02:50:22.525Z,-0.80
2018-11-28T02:52:51.825Z,-0.80
2018-11-28T02:55:21.700Z,-0.80
2018-11-28T02:57:51.297Z,-0.90
2018-11-28T03:00:25.525Z,-1.00
2018-11-28T03:02:55.071Z,-1.00
2018-11-28T03:05:24.976Z,-1.10
2018-11-28T03:07:54.538Z,-1.00
2018-11-28T03:10:24.013Z,-0.90
2018-11-28T03:12:53.589Z,-0.80
2018-11-28T03:15:54.053Z,-0.90
2018-11-28T03:18:24.170Z,-1.00
2018-11-28T03:20:53.716Z,-1.10
2018-11-28T03:23:23.602Z,-1.10
2018-11-28T03:25:53.805Z,-1.10
2018-11-28T03:28:23.369Z,-1.20
2018-11-28T03:30:52.940Z,-1.20
2018-11-28T03:33:23.302Z,-1.10
2018-11-28T03:35:53.194Z,-1.10
2018-11-28T03:38:22.754Z,-1.00
2018-11-28T03:40:52.333Z,-1.00
2018-11-28T03:43:22.950Z,-1.00
2018-11-28T03:45:52.495Z,-1.00
2018-11-28T03:48:22.662Z,-1.10
2018-11-28T03:50:52.228Z,-1.10
2018-11-28T03:53:21.794Z,-1.10
2018-11-28T03:55:51.380Z,-1.20
2018-11-28T03:58:20.654Z,-1.20
2018-11-28T04:00:50.241Z,-1.20
2018-11-28T04:03:19.810Z,-1.20
2018-11-28T04:05:49.356Z,-1.30
2018-11-28T04:08:18.712Z,-1.40
2018-11-28T04:10:50.081Z,-1.40
2018-11-28T04:13:19.634Z,-1.40
2018-11-28T04:15:49.163Z,-1.50
2018-11-28T04:18:19.445Z,-1.50
2018-11-28T04:20:49.025Z,-1.50
2018-11-28T04:23:18.811Z,-1.50
2018-11-28T04:25:48.545Z,-1.50
2018-11-28T04:28:18.080Z,-1.50
2018-11-28T04:30:47.638Z,-1.50
2018-11-28T04:33:17.158Z,-1.60
2018-11-28T04:35:46.694Z,-1.60
2018-11-28T04:38:16.214Z,-1.70
2018-11-28T04:40:45.932Z,-1.60
2018-11-28T04:43:15.531Z,-1.60
2018-11-28T04:45:45.778Z,-1.70
2018-11-28T04:48:15.326Z,-1.70
2018-11-28T04:50:44.875Z,-1.70
2018-11-28T04:53:14.300Z,-1.70
2018-11-28T04:55:44.780Z,-1.60
2018-11-28T04:58:15.439Z,-1.70
2018-11-28T05:00:45.711Z,-1.70
2018-11-28T05:03:15.253Z,-1.60
2018-11-28T05:05:44.818Z,-1.50
2018-11-28T05:08:14.407Z,-1.60
2018-11-28T05:10:43.988Z,-1.60
2018-11-28T05:13:13.554Z,-1.50
2018-11-28T05:15:43.121Z,-1.40
2018-11-28T05:18:12.735Z,-1.50
2018-11-28T05:20:42.305Z,-1.40
2018-11-28T05:23:12.346Z,-1.30
2018-11-28T05:25:42.222Z,-1.40
2018-11-28T05:28:11.756Z,-1.30
2018-11-28T05:30:41.338Z,-1.20
2018-11-28T05:33:11.829Z,-1.00
2018-11-28T05:35:41.410Z,-0.90
2018-11-28T05:38:13.312Z,-1.10
2018-11-28T05:40:43.759Z,-1.10
2018-11-28T05:43:13.756Z,-1.00
2018-11-28T05:45:43.632Z,-0.80
2018-11-28T05:48:13.200Z,-0.70
2018-11-28T05:50:44.183Z,-0.80
2018-11-28T05:53:13.772Z,-0.60
2018-11-28T05:55:43.836Z,-0.60
2018-11-28T05:58:13.402Z,-0.30
2018-11-28T06:00:42.840Z,-0.40
2018-11-28T06:03:13.863Z,-0.40
2018-11-28T06:05:48.761Z,-0.40
2018-11-28T06:08:19.290Z,-0.40
2018-11-28T06:10:48.821Z,-0.30
2018-11-28T06:13:18.117Z,-0.20
2018-11-28T06:15:47.420Z,-0.20
2018-11-28T06:18:16.991Z,-0.20
2018-11-28T06:20:46.615Z,-0.10
2018-11-28T06:23:15.895Z,0.00
2018-11-28T06:25:45.535Z,-0.10
2018-11-28T06:28:14.836Z,-0.20
2018-11-28T06:30:44.420Z,-0.10
2018-11-28T06:33:13.735Z,-0.10
2018-11-28T06:35:43.058Z,-0.10
2018-11-28T06:38:12.332Z,-0.10
2018-11-28T06:40:46.200Z,-0.20
2018-11-28T06:43:15.776Z,-0.10
2018-11-28T06:45:45.347Z,-0.20
2018-11-28T06:48:14.631Z,-0.10
2018-11-28T06:50:43.902Z,-0.10
2018-11-28T06:53:13.346Z,-0.10
2018-11-28T06:55:42.699Z,-0.20
2018-11-28T06:58:12.332Z,-0.10
2018-11-28T07:00:41.904Z,0.00
2018-11-28T07:03:11.199Z,0.10
2018-11-28T07:05:41.063Z,0.10
2018-11-28T07:08:10.676Z,0.10
2018-11-28T07:10:40.664Z,0.00
2018-11-28T07:13:10.687Z,0.10
2018-11-28T07:15:40.071Z,0.00
2018-11-28T07:18:20.485Z,0.10
2018-11-28T07:20:49.909Z,0.10
2018-11-28T07:23:19.098Z,0.10
2018-11-28T07:25:48.346Z,0.20
2018-11-28T07:28:17.898Z,0.20
2018-11-28T07:30:47.543Z,0.20
2018-11-28T07:33:16.835Z,0.10
2018-11-28T07:35:46.148Z,0.20
2018-11-28T07:38:16.173Z,0.20
2018-11-28T07:40:45.773Z,0.20
2018-11-28T07:43:15.245Z,0.20
2018-11-28T07:45:47.288Z,0.30
2018-11-28T07:48:16.853Z,0.20
2018-11-28T07:50:47.443Z,0.30
2018-11-28T07:53:15.494Z,0.30
2018-11-28T07:55:45.378Z,0.30
2018-11-28T07:58:14.705Z,0.40
2018-11-28T08:00:44.291Z,0.40
2018-11-28T08:03:13.609Z,0.40
2018-11-28T08:05:42.899Z,0.40
2018-11-28T08:08:12.229Z,0.40
2018-11-28T08:10:41.877Z,0.40
2018-11-28T08:13:11.368Z,0.40
2018-11-28T08:15:40.709Z,0.40
2018-11-28T08:18:10.059Z,0.40
2018-11-28T08:20:39.387Z,0.50
2018-11-28T08:23:08.650Z,0.40
2018-11-28T08:25:38.162Z,0.50
2018-11-28T08:28:07.627Z,0.70
2018-11-28T08:30:37.499Z,0.60
2018-11-28T08:33:06.792Z,0.70
2018-11-28T08:35:36.085Z,0.70
2018-11-28T08:38:06.271Z,0.60
2018-11-28T08:40:35.575Z,0.50
2018-11-28T08:43:04.973Z,0.50
2018-11-28T08:45:34.703Z,0.70
2018-11-28T08:48:04.417Z,0.80
2018-11-28T08:50:35.137Z,1.00
2018-11-28T08:53:05.362Z,0.90
2018-11-28T08:55:34.710Z,0.80
2018-11-28T08:58:04.028Z,0.90
2018-11-28T09:00:33.331Z,0.90
2018-11-28T09:03:02.631Z,1.00
2018-11-28T09:05:31.978Z,1.10
2018-11-28T09:08:01.570Z,1.20
2018-11-28T09:10:30.875Z,1.20
2018-11-28T09:13:04.239Z,1.10
2018-11-28T09:15:31.318Z,1.30
2018-11-28T09:17:59.707Z,1.40
2018-11-28T09:20:29.608Z,1.40
2018-11-28T09:22:59.189Z,1.50
2018-11-28T09:25:28.841Z,1.40
2018-11-28T09:27:58.912Z,1.40
2018-11-28T09:30:28.678Z,1.50
2018-11-28T09:32:58.257Z,1.60
2018-11-28T09:35:27.539Z,1.60
2018-11-28T09:37:56.820Z,1.60
2018-11-28T09:40:27.191Z,1.70
2018-11-28T09:42:58.268Z,1.70
2018-11-28T09:45:27.754Z,1.70
2018-11-28T09:47:57.413Z,1.70
2018-11-28T09:50:27.059Z,1.90
2018-11-28T09:52:56.904Z,1.90
2018-11-28T09:55:28.450Z,1.70
2018-11-28T09:57:58.371Z,1.80
2018-11-28T10:00:28.675Z,1.80
2018-11-28T10:03:00.567Z,1.90
2018-11-28T10:05:31.162Z,1.90
2018-11-28T10:08:00.778Z,1.90
2018-11-28T10:10:30.625Z,2.00
2018-11-28T10:12:59.923Z,2.00
2018-11-28T10:15:35.248Z,1.90
2018-11-28T10:17:59.412Z,1.80
2018-11-28T10:20:28.684Z,2.00
2018-11-28T10:22:58.040Z,2.20
2018-11-28T10:25:27.643Z,2.00
2018-11-28T10:28:02.231Z,2.10
2018-11-28T10:30:33.091Z,2.10
2018-11-28T10:33:02.381Z,1.90
2018-11-28T10:35:31.667Z,1.90
2018-11-28T10:38:01.205Z,1.90
2018-11-28T10:40:30.874Z,1.90
2018-11-28T10:43:00.951Z,1.80
2018-11-28T10:45:31.135Z,1.90
2018-11-28T10:48:00.916Z,1.90
2018-11-28T10:50:30.467Z,1.90
2018-11-28T10:52:59.743Z,1.90
2018-11-28T10:55:29.231Z,1.80
2018-11-28T10:57:58.877Z,1.90
2018-11-28T11:00:36.106Z,1.80
2018-11-28T11:03:12.075Z,1.80
2018-11-28T11:05:46.766Z,2.00
2018-11-28T11:08:21.298Z,1.90
2018-11-28T11:10:56.155Z,1.90
2018-11-28T11:13:30.762Z,1.80
2018-11-28T11:16:00.642Z,1.90
2018-11-28T11:18:30.124Z,1.90
2018-11-28T11:20:59.423Z,1.80
2018-11-28T11:23:28.817Z,1.90
2018-11-28T11:25:58.382Z,1.80
2018-11-28T11:28:27.680Z,1.80
2018-11-28T11:30:57.993Z,1.90
2018-11-28T11:33:27.319Z,2.10
2018-11-28T11:35:56.862Z,2.00
2018-11-28T11:38:26.776Z,2.00
2018-11-28T11:40:56.391Z,1.90
2018-11-28T11:43:25.716Z,1.90
2018-11-28T11:45:55.263Z,2.10
2018-11-28T11:48:24.584Z,1.90
2018-11-28T11:50:54.249Z,1.80
2018-11-28T11:53:23.828Z,2.00
2018-11-28T11:55:53.694Z,1.90
2018-11-28T11:58:23.006Z,1.90
2018-11-28T12:00:52.292Z,2.10
2018-11-28T12:03:21.652Z,2.10
2018-11-28T12:05:54.383Z,2.00
2018-11-28T12:08:24.830Z,1.90
2018-11-28T12:10:53.920Z,1.90
2018-11-28T12:13:23.296Z,1.90
2018-11-28T12:15:53.165Z,1.80
2018-11-28T12:18:22.283Z,1.80
2018-11-28T12:20:55.269Z,1.80
2018-11-28T12:23:24.673Z,1.80
2018-11-28T12:25:54.545Z,1.70
2018-11-28T12:28:24.523Z,1.80
2018-11-28T12:30:53.895Z,1.90
2018-11-28T12:33:23.175Z,1.70
2018-11-28T12:35:52.990Z,1.70
2018-11-28T12:38:22.045Z,1.70
2018-11-28T12:40:51.930Z,1.80
2018-11-28T12:43:21.340Z,1.70
2018-11-28T12:45:51.324Z,1.70
2018-11-28T12:48:21.101Z,1.80
2018-11-28T12:50:50.769Z,1.70
2018-11-28T12:53:20.717Z,1.70
2018-11-28T12:55:50.029Z,1.70
2018-11-28T12:58:20.460Z,1.50
2018-11-28T13:00:50.736Z,1.50
2018-11-28T13:03:20.309Z,1.50
2018-11-28T13:05:49.629Z,1.70
2018-11-28T13:08:18.717Z,1.70
2018-11-28T13:10:48.704Z,1.50
2018-11-28T13:13:18.150Z,1.70
2018-11-28T13:15:47.514Z,1.60
2018-11-28T13:18:16.852Z,1.50
2018-11-28T13:20:46.496Z,1.60
2018-11-28T13:23:15.787Z,1.40
2018-11-28T13:25:45.108Z,1.40
2018-11-28T13:28:14.608Z,1.50
2018-11-28T13:30:43.949Z,1.50
2018-11-28T13:33:13.246Z,1.50
2018-11-28T13:35:42.787Z,1.50
2018-11-28T13:38:12.976Z,1.50
2018-11-28T13:40:43.297Z,1.40
2018-11-28T13:43:12.649Z,1.40
2018-11-28T13:45:44.690Z,1.40
2018-11-28T13:48:14.908Z,1.40
2018-11-28T13:50:44.215Z,1.60
2018-11-28T13:53:15.286Z,1.20
2018-11-28T13:56:30.033Z,1.40
2018-11-28T13:58:17.903Z,1.10
2018-11-28T14:00:47.209Z,1.20
2018-11-28T14:03:16.659Z,1.00
2018-11-28T14:05:46.146Z,0.80
2018-11-28T14:08:15.829Z,0.80
2018-11-28T14:10:45.183Z,0.70
2018-11-28T14:13:15.416Z,0.50
2018-11-28T14:15:45.123Z,0.60
2018-11-28T14:18:16.295Z,0.60
2018-11-28T14:20:46.221Z,0.80
2018-11-28T14:23:15.515Z,0.60
2018-11-28T14:25:45.326Z,0.60
2018-11-28T14:28:14.799Z,0.70
2018-11-28T14:30:45.680Z,0.60
2018-11-28T14:33:15.823Z,0.50
2018-11-28T14:35:45.133Z,0.60
2018-11-28T14:38:14.570Z,0.50
2018-11-28T14:40:44.297Z,0.50
2018-11-28T14:43:13.613Z,0.50
2018-11-28T14:45:43.192Z,0.80
2018-11-28T14:48:12.724Z,0.70
2018-11-28T14:50:42.030Z,0.50
2018-11-28T14:53:11.397Z,0.60
2018-11-28T14:55:41.618Z,0.70
2018-11-28T14:58:12.827Z,0.50
2018-11-28T15:00:42.385Z,0.50
2018-11-28T15:03:14.281Z,0.70
2018-11-28T15:05:56.205Z,0.80
2018-11-28T15:08:28.653Z,0.60
2018-11-28T15:11:06.472Z,0.40
2018-11-28T15:13:35.783Z,0.60
2018-11-28T15:16:05.501Z,0.50
2018-11-28T15:18:34.853Z,0.30
2018-11-28T15:21:04.374Z,0.20
2018-11-28T15:23:33.785Z,0.20
2018-11-28T15:26:03.091Z,0.20
2018-11-28T15:28:32.894Z,0.30
2018-11-28T15:31:02.295Z,0.30
2018-11-28T15:33:31.604Z,0.20
2018-11-28T15:36:00.909Z,0.10
2018-11-28T15:38:30.205Z,0.10
2018-11-28T15:40:59.697Z,0.20
2018-11-28T15:43:28.990Z,0.20
2018-11-28T15:45:58.594Z,0.10
2018-11-28T15:48:27.907Z,0.00
2018-11-28T15:50:57.205Z,0.30
2018-11-28T15:53:26.588Z,0.20
2018-11-28T15:55:56.195Z,-0.10
2018-11-28T15:58:25.476Z,-0.10
2018-11-28T16:00:54.811Z,0.00
2018-11-28T16:03:24.104Z,0.20
2018-11-28T16:05:53.519Z,0.10
2018-11-28T16:08:22.857Z,0.20
2018-11-28T16:10:52.446Z,0.20
2018-11-28T16:13:21.748Z,0.30
2018-11-28T16:15:54.677Z,0.10
2018-11-28T16:18:24.759Z,0.10
2018-11-28T16:20:54.361Z,0.00
2018-11-28T16:23:24.062Z,-0.10
2018-11-28T16:25:53.485Z,-0.10
2018-11-28T16:28:22.794Z,-0.10
2018-11-28T16:30:53.527Z,0.00
2018-11-28T16:33:23.082Z,-0.10
2018-11-28T16:35:52.363Z,-0.20
2018-11-28T16:38:21.703Z,-0.10
2018-11-28T16:40:51.125Z,-0.10
2018-11-28T16:43:20.452Z,0.00
2018-11-28T16:45:49.919Z,0.00
2018-11-28T16:48:19.735Z,0.00
2018-11-28T16:50:49.320Z,-0.10
2018-11-28T16:53:18.651Z,-0.20
2018-11-28T16:55:48.004Z,0.00
2018-11-28T16:58:17.026Z,0.00
2018-11-28T17:00:46.871Z,0.00
2018-11-28T17:03:16.426Z,-0.20
2018-11-28T17:05:46.055Z,0.00
2018-11-28T17:08:15.652Z,-0.10
2018-11-28T17:10:44.970Z,-0.10
2018-11-28T17:13:14.280Z,-0.10
2018-11-28T17:15:44.215Z,0.00
2018-11-28T17:18:14.116Z,-0.10
2018-11-28T17:20:44.012Z,0.00
2018-11-28T17:23:13.349Z,-0.10
2018-11-28T17:25:42.882Z,-0.10
2018-11-28T17:28:12.176Z,-0.10
2018-11-28T17:30:41.486Z,0.00
2018-11-28T17:33:11.093Z,-0.10
2018-11-28T17:35:40.688Z,-0.10
2018-11-28T17:38:10.012Z,-0.10
2018-11-28T17:40:39.602Z,0.00
2018-11-28T17:43:09.201Z,-0.10
2018-11-28T17:45:38.847Z,0.00
2018-11-28T17:48:08.734Z,-0.10
2018-11-28T17:50:39.242Z,-0.10
2018-11-28T17:53:12.604Z,0.00
2018-11-28T17:56:00.604Z,-0.10
2018-11-28T17:58:29.904Z,-0.10
2018-11-28T18:00:59.871Z,-0.20
2018-11-28T18:03:29.166Z,-0.10
2018-11-28T18:05:59.046Z,-0.10
2018-11-28T18:08:29.280Z,-0.10
2018-11-28T18:11:09.902Z,-0.10
2018-11-28T18:13:39.694Z,-0.10
2018-11-28T18:16:09.811Z,-0.10
2018-11-28T18:18:39.444Z,-0.10
2018-11-28T18:21:08.722Z,-0.30
2018-11-28T18:23:39.241Z,-0.30
2018-11-28T18:26:10.945Z,-0.20
2018-11-28T18:28:40.811Z,-0.20
2018-11-28T18:31:10.114Z,-0.10
2018-11-28T18:33:39.487Z,-0.20
2018-11-28T18:36:09.349Z,-0.30
2018-11-28T18:38:38.625Z,0.00
2018-11-28T18:41:08.143Z,-0.10
2018-11-28T18:43:52.098Z,-0.10
2018-11-28T18:46:22.317Z,-0.10
2018-11-28T18:48:51.881Z,-0.20
2018-11-28T18:51:21.279Z,-0.20
2018-11-28T18:53:51.514Z,-0.20
2018-11-28T18:56:21.271Z,-0.20
2018-11-28T18:58:50.595Z,-0.20
2018-11-28T19:01:19.891Z,-0.20
2018-11-28T19:03:49.235Z,-0.20
2018-11-28T19:06:18.549Z,-0.20
2018-11-28T19:08:47.851Z,-0.10
2018-11-28T19:11:17.361Z,-0.10
2018-11-28T19:13:46.972Z,-0.10
2018-11-28T19:16:16.295Z,-0.20
2018-11-28T19:18:45.856Z,-0.20
2018-11-28T19:21:15.477Z,-0.20
2018-11-28T19:23:46.593Z,-0.10
2018-11-28T19:26:16.229Z,-0.20
2018-11-28T19:28:45.525Z,0.10
2018-11-28T19:31:15.338Z,0.10
2018-11-28T19:33:46.835Z,-0.10
2018-11-28T19:36:16.544Z,-0.10
2018-11-28T19:38:46.206Z,-0.10
2018-11-28T19:41:24.747Z,-0.10
2018-11-28T19:43:54.444Z,-0.10
2018-11-28T19:46:24.073Z,0.10
2018-11-28T19:48:54.103Z,0.00
2018-11-28T19:51:23.853Z,-0.10
2018-11-28T19:53:53.445Z,-0.20
2018-11-28T19:56:23.043Z,0.00
2018-11-28T19:58:52.656Z,-0.20
2018-11-28T20:01:22.521Z,-0.10
2018-11-28T20:04:10.615Z,-0.10
2018-11-28T20:06:40.902Z,-0.10
2018-11-28T20:09:17.053Z,0.00
2018-11-28T20:11:46.822Z,-0.10
2018-11-28T20:14:15.860Z,-0.10
2018-11-28T20:16:46.495Z,0.20
2018-11-28T20:19:17.643Z,0.00
2018-11-28T20:21:46.241Z,0.20
2018-11-28T20:24:15.849Z,0.00
2018-11-28T20:26:45.530Z,0.10
2018-11-28T20:29:15.151Z,-0.10
2018-11-28T20:31:44.499Z,-0.10
2018-11-28T20:34:14.428Z,-0.10
2018-11-28T20:36:45.932Z,0.10
2018-11-28T20:39:15.239Z,-0.10
2018-11-28T20:41:44.998Z,-0.10
2018-11-28T20:44:14.439Z,0.00
2018-11-28T20:46:43.868Z,-0.10
2018-11-28T20:49:13.254Z,0.10
2018-11-28T20:51:46.021Z,0.10
2018-11-28T20:54:17.450Z,0.10
2018-11-28T20:56:46.782Z,0.10
2018-11-28T20:59:17.098Z,0.00
2018-11-28T21:01:46.409Z,0.10
2018-11-28T21:04:16.742Z,0.20
2018-11-28T21:06:46.338Z,0.10
2018-11-28T21:09:15.954Z,0.00
2018-11-28T21:11:46.218Z,0.00
2018-11-28T21:14:16.051Z,-0.10
2018-11-28T21:16:45.667Z,-0.10
2018-11-28T21:19:15.042Z,0.00
2018-11-28T21:21:44.961Z,-0.10
2018-11-28T21:24:14.229Z,0.00
2018-11-28T21:26:43.808Z,-0.10
2018-11-28T21:29:13.401Z,0.00
2018-11-28T21:31:42.714Z,-0.10
2018-11-28T21:34:12.558Z,-0.10
2018-11-28T21:36:41.853Z,-0.10
2018-11-28T21:39:11.136Z,0.00
2018-11-28T21:41:40.472Z,0.00
2018-11-28T21:44:09.797Z,0.00
2018-11-28T21:46:39.113Z,0.20
2018-11-28T21:49:08.419Z,0.20
2018-11-28T21:51:38.286Z,0.00
2018-11-28T21:54:07.948Z,0.00
2018-11-28T21:56:39.096Z,0.00
2018-11-28T21:59:08.442Z,0.10
2018-11-28T22:01:37.473Z,0.10
2018-11-28T22:04:07.149Z,0.10
2018-11-28T22:06:36.474Z,0.10
2018-11-28T22:09:08.658Z,0.00
2018-11-28T22:11:38.213Z,0.10
2018-11-28T22:14:07.517Z,0.00
2018-11-28T22:16:37.011Z,0.10
2018-11-28T22:19:06.629Z,0.10
2018-11-28T22:21:36.008Z,0.10
2018-11-28T22:24:05.752Z,0.00
2018-11-28T22:26:35.242Z,0.00
2018-11-28T22:29:05.018Z,0.00
2018-11-28T22:31:34.412Z,0.00
2018-11-28T22:34:03.704Z,0.00
2018-11-28T22:36:33.023Z,-0.10
2018-11-28T22:39:02.575Z,0.00
2018-11-28T22:41:31.604Z,0.00
2018-11-28T22:44:00.929Z,-0.10
2018-11-28T22:46:30.465Z,-0.10
2018-11-28T22:49:00.998Z,0.00
2018-11-28T22:51:30.368Z,0.00
2018-11-28T22:54:00.222Z,0.10
2018-11-28T22:56:29.862Z,0.00
2018-11-28T22:58:59.794Z,-0.10
2018-11-28T23:01:43.203Z,-0.20
2018-11-28T23:04:12.519Z,-0.10
2018-11-28T23:06:42.382Z,0.00
2018-11-28T23:09:12.068Z,-0.10
2018-11-28T23:11:41.682Z,-0.20
2018-11-28T23:14:11.857Z,-0.20
2018-11-28T23:16:41.400Z,-0.20
2018-11-28T23:19:10.852Z,0.00
2018-11-28T23:21:40.645Z,0.00
2018-11-28T23:24:09.939Z,-0.10
2018-11-28T23:26:39.557Z,-0.20
2018-11-28T23:29:09.142Z,-0.10
2018-11-28T23:31:38.414Z,-0.20
2018-11-28T23:34:07.715Z,-0.20
2018-11-28T23:36:37.243Z,-0.10
2018-11-28T23:39:07.091Z,-0.20
2018-11-28T23:41:36.661Z,-0.20
2018-11-28T23:44:06.264Z,-0.10
2018-11-28T23:46:35.569Z,-0.20
2018-11-28T23:49:05.474Z,-0.10
2018-11-28T23:51:35.027Z,0.00
2018-11-28T23:54:05.098Z,-0.10
2018-11-28T23:56:34.849Z,-0.10
2018-11-28T23:59:05.131Z,-0.10
